createdAt,value
2023-04-11T00:00:07.284Z,7.55
2023-04-11T00:02:39.774Z,7.51
2023-04-11T00:05:08.273Z,7.45
2023-04-11T00:07:36.306Z,7.43
2023-04-11T00:10:04.372Z,7.46
2023-04-11T00:12:32.637Z,7.45
2023-04-11T00:15:00.500Z,7.43
2023-04-11T00:17:31.590Z,7.45
2023-04-11T00:20:08.114Z,7.46
2023-04-11T00:22:38.954Z,7.46
2023-04-11T00:25:06.920Z,7.42
2023-04-11T00:27:35.216Z,7.34
2023-04-11T00:30:04.277Z,7.27
2023-04-11T00:32:32.486Z,7.25
2023-04-11T00:35:00.340Z,7.24
2023-04-11T00:37:28.059Z,7.18
2023-04-11T00:39:57.197Z,7.14
2023-04-11T00:42:25.162Z,7.15
2023-04-11T00:44:53.003Z,7.14
2023-04-11T00:47:20.800Z,7.09
2023-04-11T00:49:48.808Z,7.11
2023-04-11T00:52:16.656Z,7.07
2023-04-11T00:54:44.370Z,6.98
2023-04-11T00:57:12.322Z,6.89
2023-04-11T00:59:41.436Z,6.88
2023-04-11T01:02:09.456Z,6.88
2023-04-11T01:04:38.398Z,6.83
2023-04-11T01:07:07.132Z,6.75
2023-04-11T01:09:36.398Z,6.69
2023-04-11T01:12:04.769Z,6.63
2023-04-11T01:14:32.588Z,6.51
2023-04-11T01:17:02.343Z,6.42
2023-04-11T01:19:30.426Z,6.37
2023-04-11T01:21:58.501Z,6.31
2023-04-11T01:24:26.626Z,6.26
2023-04-11T01:27:00.052Z,6.22
2023-04-11T01:29:27.894Z,6.29
2023-04-11T01:31:55.825Z,6.38
2023-04-11T01:34:23.923Z,6.37
2023-04-11T01:36:52.627Z,6.36
2023-04-11T01:39:20.711Z,6.38
2023-04-11T01:41:48.812Z,6.40
2023-04-11T01:44:16.845Z,6.35
2023-04-11T01:46:44.867Z,6.39
2023-04-11T01:49:19.016Z,6.49
2023-04-11T01:51:48.313Z,6.58
2023-04-11T01:54:16.047Z,6.56
2023-04-11T01:56:43.925Z,6.43
2023-04-11T01:59:11.763Z,6.29
2023-04-11T02:01:42.090Z,6.19
2023-04-11T02:04:10.428Z,6.13
2023-04-11T02:06:42.134Z,6.07
2023-04-11T02:09:10.442Z,6.01
2023-04-11T02:11:38.287Z,6.01
2023-04-11T02:14:06.358Z,6.03
2023-04-11T02:16:34.297Z,6.03
2023-04-11T02:19:03.747Z,5.97
2023-04-11T02:21:31.704Z,6.05
2023-04-11T02:24:00.803Z,6.15
2023-04-11T02:26:29.102Z,6.11
2023-04-11T02:28:57.131Z,6.10
2023-04-11T02:31:25.348Z,6.16
2023-04-11T02:33:53.662Z,6.25
2023-04-11T02:36:22.004Z,6.33
2023-04-11T02:38:50.013Z,6.33
2023-04-11T02:41:17.752Z,6.20
2023-04-11T02:43:52.432Z,6.16
2023-04-11T02:46:22.107Z,6.16
2023-04-11T02:48:50.422Z,6.05
2023-04-11T02:51:18.710Z,5.87
2023-04-11T02:53:46.738Z,5.75
2023-04-11T02:56:21.392Z,5.67
2023-04-11T02:58:52.697Z,5.65
2023-04-11T03:01:22.852Z,5.58
2023-04-11T03:03:52.421Z,5.52
2023-04-11T03:06:21.478Z,5.49
2023-04-11T03:08:52.625Z,5.39
2023-04-11T03:11:21.149Z,5.31
2023-04-11T03:13:49.348Z,5.22
2023-04-11T03:16:19.996Z,5.13
2023-04-11T03:18:48.859Z,5.08
2023-04-11T03:21:16.665Z,5.04
2023-04-11T03:23:50.144Z,4.99
2023-04-11T03:26:18.991Z,4.98
2023-04-11T03:28:47.418Z,4.99
2023-04-11T03:31:17.839Z,5.02
2023-04-11T03:33:46.538Z,5.04
2023-04-11T03:36:14.362Z,5.07
2023-04-11T03:38:42.859Z,5.08
2023-04-11T03:41:10.724Z,5.08
2023-04-11T03:43:40.656Z,5.09
2023-04-11T03:46:09.171Z,5.11
2023-04-11T03:48:41.020Z,5.13
2023-04-11T03:51:10.224Z,5.17
2023-04-11T03:53:52.760Z,5.28
2023-04-11T03:56:33.760Z,5.38
2023-04-11T03:59:01.914Z,5.41
2023-04-11T04:01:38.193Z,5.46
2023-04-11T04:04:07.707Z,5.52
2023-04-11T04:06:38.000Z,5.55
2023-04-11T04:09:09.348Z,5.59
2023-04-11T04:11:49.598Z,5.66
2023-04-11T04:14:21.901Z,5.75
2023-04-11T04:16:52.548Z,5.84
2023-04-11T04:19:20.726Z,5.91
2023-04-11T04:21:50.227Z,5.94
2023-04-11T04:24:18.690Z,6.05
2023-04-11T04:27:10.262Z,6.11
2023-04-11T04:29:50.698Z,6.15
2023-04-11T04:32:31.108Z,6.19
2023-04-11T04:35:10.368Z,6.27
2023-04-11T04:37:45.687Z,6.34
2023-04-11T04:40:31.803Z,6.43
2023-04-11T04:43:09.182Z,6.50
2023-04-11T04:45:41.455Z,6.57
2023-04-11T04:48:11.861Z,6.66
2023-04-11T04:50:39.786Z,6.73
2023-04-11T04:53:10.372Z,6.80
2023-04-11T04:55:41.765Z,6.90
2023-04-11T04:58:09.907Z,6.99
2023-04-11T05:00:41.133Z,7.07
2023-04-11T05:03:17.552Z,7.17
2023-04-11T05:05:47.186Z,7.27
2023-04-11T05:08:17.668Z,7.35
2023-04-11T05:10:45.736Z,7.43
2023-04-11T05:13:13.999Z,7.52
2023-04-11T05:15:47.240Z,7.61
2023-04-11T05:18:15.625Z,7.71
2023-04-11T05:20:43.860Z,7.80
2023-04-11T05:23:14.339Z,7.88
2023-04-11T05:25:42.440Z,8.00
2023-04-11T05:28:12.385Z,8.12
2023-04-11T05:30:40.406Z,8.23
2023-04-11T05:33:09.058Z,8.33
2023-04-11T05:35:37.112Z,8.47
2023-04-11T05:38:11.096Z,8.59
2023-04-11T05:40:40.719Z,8.71
2023-04-11T05:43:11.373Z,8.82
2023-04-11T05:45:40.388Z,8.91
2023-04-11T05:48:08.396Z,9.00
2023-04-11T05:50:36.590Z,9.10
2023-04-11T05:53:05.377Z,9.21
2023-04-11T05:55:34.097Z,9.31
2023-04-11T05:58:08.697Z,9.44
2023-04-11T06:00:38.237Z,9.55
2023-04-11T06:03:09.822Z,9.66
2023-04-11T06:05:40.681Z,9.75
2023-04-11T06:08:11.606Z,9.86
2023-04-11T06:10:39.928Z,9.94
2023-04-11T06:13:08.781Z,10.03
2023-04-11T06:15:38.082Z,10.12
2023-04-11T06:18:08.730Z,10.22
2023-04-11T06:20:37.100Z,10.29
2023-04-11T06:23:05.805Z,10.35
2023-04-11T06:25:33.630Z,10.38
2023-04-11T06:28:01.510Z,10.44
2023-04-11T06:30:29.561Z,10.49
2023-04-11T06:32:58.002Z,10.55
2023-04-11T06:35:26.129Z,10.61
2023-04-11T06:37:54.062Z,10.63
2023-04-11T06:40:22.378Z,10.65
2023-04-11T06:42:51.018Z,10.68
2023-04-11T06:45:18.913Z,10.74
2023-04-11T06:47:49.364Z,10.80
2023-04-11T06:50:17.273Z,10.89
2023-04-11T06:52:46.442Z,10.98
2023-04-11T06:55:15.627Z,11.03
2023-04-11T06:57:43.607Z,11.09
2023-04-11T07:00:13.110Z,11.16
2023-04-11T07:02:44.750Z,11.23
2023-04-11T07:05:12.929Z,11.31
2023-04-11T07:07:42.488Z,11.38
2023-04-11T07:10:10.563Z,11.44
2023-04-11T07:12:38.319Z,11.50
2023-04-11T07:15:07.017Z,11.54
2023-04-11T07:17:35.382Z,11.56
2023-04-11T07:20:08.997Z,11.59
2023-04-11T07:22:43.385Z,11.63
2023-04-11T07:25:11.640Z,11.66
2023-04-11T07:27:40.395Z,11.71
2023-04-11T07:30:09.506Z,11.80
2023-04-11T07:32:38.749Z,11.90
2023-04-11T07:35:06.974Z,11.97
2023-04-11T07:37:35.704Z,12.05
2023-04-11T07:40:06.630Z,12.17
2023-04-11T07:42:34.790Z,12.31
2023-04-11T07:45:02.627Z,12.45
2023-04-11T07:47:33.080Z,12.56
2023-04-11T07:50:00.932Z,12.63
2023-04-11T07:52:29.004Z,12.71
2023-04-11T07:54:57.224Z,12.83
2023-04-11T07:57:25.172Z,12.92
2023-04-11T07:59:52.891Z,12.98
2023-04-11T08:02:20.717Z,13.01
2023-04-11T08:04:48.918Z,13.01
2023-04-11T08:07:19.094Z,13.03
2023-04-11T08:09:46.876Z,13.07
2023-04-11T08:12:16.737Z,13.09
2023-04-11T08:14:45.448Z,13.14
2023-04-11T08:17:27.102Z,13.21
2023-04-11T08:19:57.630Z,13.27
2023-04-11T08:22:28.865Z,13.33
2023-04-11T08:24:58.635Z,13.39
2023-04-11T08:27:26.648Z,13.44
2023-04-11T08:29:54.726Z,13.47
2023-04-11T08:32:22.593Z,13.49
2023-04-11T08:34:50.814Z,13.48
2023-04-11T08:37:18.775Z,13.49
2023-04-11T08:39:47.031Z,13.54
2023-04-11T08:42:21.759Z,13.61
2023-04-11T08:44:56.342Z,13.69
2023-04-11T08:47:25.030Z,13.74
2023-04-11T08:49:53.071Z,13.77
2023-04-11T08:52:21.504Z,13.83
2023-04-11T08:54:51.333Z,13.90
2023-04-11T08:57:26.140Z,13.94
2023-04-11T08:59:54.865Z,13.96
2023-04-11T09:02:23.018Z,13.96
2023-04-11T09:04:51.901Z,13.97
2023-04-11T09:07:19.774Z,13.97
2023-04-11T09:09:47.808Z,14.03
2023-04-11T09:12:19.571Z,14.08
2023-04-11T09:14:48.067Z,14.10
2023-04-11T09:17:17.134Z,14.09
2023-04-11T09:19:47.509Z,14.09
2023-04-11T09:22:17.348Z,14.12
2023-04-11T09:24:47.907Z,14.13
2023-04-11T09:27:24.481Z,14.14
2023-04-11T09:29:52.318Z,14.19
2023-04-11T09:32:27.498Z,14.27
2023-04-11T09:35:20.294Z,14.30
2023-04-11T09:37:54.752Z,14.34
2023-04-11T09:40:23.544Z,14.42
2023-04-11T09:42:58.490Z,14.49
2023-04-11T09:45:26.567Z,14.60
2023-04-11T09:47:58.294Z,14.66
2023-04-11T09:50:26.577Z,14.78
2023-04-11T09:52:57.074Z,14.93
2023-04-11T09:55:27.442Z,15.06
2023-04-11T09:57:55.309Z,15.19
2023-04-11T10:00:30.218Z,15.30
2023-04-11T10:02:58.483Z,15.30
2023-04-11T10:05:27.592Z,15.26
2023-04-11T10:07:55.728Z,15.35
2023-04-11T10:10:23.639Z,15.46
2023-04-11T10:12:53.155Z,15.52
2023-04-11T10:15:22.395Z,15.54
2023-04-11T10:18:09.998Z,15.47
2023-04-11T10:20:43.589Z,15.48
2023-04-11T10:23:12.653Z,15.57
2023-04-11T10:25:50.654Z,15.65
2023-04-11T10:28:32.058Z,15.61
2023-04-11T10:31:07.486Z,15.50
2023-04-11T10:33:36.126Z,15.41
2023-04-11T10:36:10.033Z,15.32
2023-04-11T10:38:49.529Z,15.26
2023-04-11T10:41:42.240Z,15.20
2023-04-11T10:44:18.636Z,15.10
2023-04-11T10:46:55.896Z,15.08
2023-04-11T10:49:37.169Z,15.11
2023-04-11T10:52:16.495Z,15.12
2023-04-11T10:54:46.113Z,15.10
2023-04-11T10:57:16.500Z,15.11
2023-04-11T10:59:44.579Z,15.13
2023-04-11T11:02:12.453Z,15.15
2023-04-11T11:04:40.493Z,15.19
2023-04-11T11:07:13.213Z,15.31
2023-04-11T11:09:41.204Z,15.46
2023-04-11T11:12:15.397Z,15.50
2023-04-11T11:14:47.300Z,15.54
2023-04-11T11:17:15.660Z,15.60
2023-04-11T11:19:45.028Z,15.68
2023-04-11T11:22:25.736Z,15.80
2023-04-11T11:24:53.854Z,15.91
2023-04-11T11:27:23.822Z,16.02
2023-04-11T11:29:52.902Z,16.04
2023-04-11T11:32:22.738Z,16.03
2023-04-11T11:34:52.779Z,16.02
2023-04-11T11:37:21.482Z,16.04
2023-04-11T11:39:49.239Z,16.10
2023-04-11T11:42:17.274Z,16.18
2023-04-11T11:44:45.166Z,16.28
2023-04-11T11:47:15.491Z,16.35
2023-04-11T11:49:56.155Z,16.37
2023-04-11T11:52:33.608Z,16.33
2023-04-11T11:55:02.704Z,16.30
2023-04-11T11:57:30.679Z,16.21
2023-04-11T12:00:00.278Z,16.09
2023-04-11T12:02:28.336Z,16.07
2023-04-11T12:05:00.004Z,16.07
2023-04-11T12:07:34.812Z,16.09
2023-04-11T12:10:08.338Z,16.18
2023-04-11T12:12:37.045Z,16.39
2023-04-11T12:15:12.050Z,16.57
2023-04-11T12:17:40.127Z,16.72
2023-04-11T12:20:34.560Z,16.84
2023-04-11T12:23:02.537Z,16.81
2023-04-11T12:25:32.363Z,16.76
2023-04-11T12:28:00.406Z,16.76
2023-04-11T12:30:30.098Z,16.66
2023-04-11T12:32:59.023Z,16.56
2023-04-11T12:35:27.300Z,16.51
2023-04-11T12:37:57.682Z,16.51
2023-04-11T12:40:26.108Z,16.62
2023-04-11T12:42:57.219Z,16.86
2023-04-11T12:45:26.161Z,17.13
2023-04-11T12:47:54.590Z,17.24
2023-04-11T12:50:28.230Z,17.30
2023-04-11T12:52:56.870Z,17.23
2023-04-11T12:55:24.811Z,17.14
2023-04-11T12:57:55.273Z,16.95
2023-04-11T13:00:24.267Z,16.75
2023-04-11T13:03:12.717Z,16.60
2023-04-11T13:05:41.418Z,16.59
2023-04-11T13:08:09.701Z,16.61
2023-04-11T13:10:37.970Z,16.57
2023-04-11T13:13:15.325Z,16.60
2023-04-11T13:15:46.604Z,16.64
2023-04-11T13:18:14.547Z,16.62
2023-04-11T13:20:45.785Z,16.59
2023-04-11T13:23:16.551Z,16.55
2023-04-11T13:25:48.549Z,16.55
2023-04-11T13:28:16.902Z,16.56
2023-04-11T13:30:44.973Z,16.56
2023-04-11T13:33:12.781Z,16.62
2023-04-11T13:35:40.544Z,16.69
2023-04-11T13:38:11.131Z,16.79
2023-04-11T13:40:41.264Z,17.01
2023-04-11T13:43:10.974Z,17.21
2023-04-11T13:45:39.190Z,17.45
2023-04-11T13:48:08.235Z,17.57
2023-04-11T13:50:37.380Z,17.59
2023-04-11T13:53:05.356Z,17.40
2023-04-11T13:55:33.941Z,17.26
2023-04-11T13:58:01.737Z,17.19
2023-04-11T14:00:29.726Z,17.06
2023-04-11T14:02:58.290Z,16.90
2023-04-11T14:05:27.144Z,16.81
2023-04-11T14:07:55.784Z,16.71
2023-04-11T14:10:23.586Z,16.62
2023-04-11T14:12:59.027Z,16.50
2023-04-11T14:15:27.958Z,16.42
2023-04-11T14:17:55.871Z,16.30
2023-04-11T14:20:25.266Z,16.24
2023-04-11T14:22:53.325Z,16.18
2023-04-11T14:25:22.545Z,16.13
2023-04-11T14:27:50.758Z,16.09
2023-04-11T14:30:19.105Z,16.03
2023-04-11T14:32:47.717Z,15.97
2023-04-11T14:35:16.145Z,15.93
2023-04-11T14:37:45.038Z,15.88
2023-04-11T14:40:13.696Z,15.84
2023-04-11T14:42:42.734Z,15.80
2023-04-11T14:45:12.908Z,15.74
2023-04-11T14:47:41.773Z,15.71
2023-04-11T14:50:09.962Z,15.71
2023-04-11T14:52:41.120Z,15.71
2023-04-11T14:55:10.619Z,15.67
2023-04-11T14:57:43.109Z,15.62
2023-04-11T15:00:18.000Z,15.52
2023-04-11T15:02:47.089Z,15.40
2023-04-11T15:05:16.935Z,15.36
2023-04-11T15:07:46.142Z,15.31
2023-04-11T15:10:14.577Z,15.24
2023-04-11T15:12:43.155Z,15.17
2023-04-11T15:15:12.010Z,15.11
2023-04-11T15:17:46.500Z,15.06
2023-04-11T15:20:19.954Z,15.01
2023-04-11T15:22:47.841Z,15.01
2023-04-11T15:25:16.841Z,14.97
2023-04-11T15:27:44.824Z,14.93
2023-04-11T15:30:12.820Z,14.89
2023-04-11T15:32:44.093Z,14.83
2023-04-11T15:35:12.384Z,14.82
2023-04-11T15:37:42.088Z,14.77
2023-04-11T15:40:12.497Z,14.76
2023-04-11T15:42:44.231Z,14.70
2023-04-11T15:45:12.533Z,14.65
2023-04-11T15:47:40.738Z,14.63
2023-04-11T15:50:08.935Z,14.56
2023-04-11T15:52:36.823Z,14.52
2023-04-11T15:55:09.465Z,14.45
2023-04-11T15:57:37.347Z,14.37
2023-04-11T16:00:09.287Z,14.34
2023-04-11T16:02:38.515Z,14.32
2023-04-11T16:05:07.980Z,14.28
2023-04-11T16:07:36.351Z,14.27
2023-04-11T16:10:05.113Z,14.24
2023-04-11T16:12:33.502Z,14.20
2023-04-11T16:15:01.304Z,14.18
2023-04-11T16:17:31.787Z,14.17
2023-04-11T16:20:00.260Z,14.12
2023-04-11T16:22:27.990Z,14.11
2023-04-11T16:24:56.355Z,14.09
2023-04-11T16:27:24.390Z,14.05
2023-04-11T16:30:01.222Z,14.03
2023-04-11T16:32:32.790Z,14.02
2023-04-11T16:35:00.941Z,13.99
2023-04-11T16:37:30.893Z,13.98
2023-04-11T16:39:58.829Z,13.97
2023-04-11T16:42:26.513Z,13.93
2023-04-11T16:44:54.540Z,13.90
2023-04-11T16:47:26.236Z,13.88
2023-04-11T16:49:54.428Z,13.85
2023-04-11T16:52:22.658Z,13.85
2023-04-11T16:54:51.794Z,13.86
2023-04-11T16:57:19.656Z,13.82
2023-04-11T16:59:51.703Z,13.81
2023-04-11T17:02:19.838Z,13.80
2023-04-11T17:04:47.757Z,13.81
2023-04-11T17:07:17.987Z,13.80
2023-04-11T17:09:46.890Z,13.82
2023-04-11T17:12:15.619Z,13.80
2023-04-11T17:14:52.966Z,13.77
2023-04-11T17:17:22.824Z,13.75
2023-04-11T17:19:51.479Z,13.72
2023-04-11T17:22:19.585Z,13.74
2023-04-11T17:24:47.914Z,13.73
2023-04-11T17:27:16.354Z,13.72
2023-04-11T17:29:44.164Z,13.72
2023-04-11T17:32:12.328Z,13.69
2023-04-11T17:34:40.340Z,13.64
2023-04-11T17:37:08.171Z,13.59
2023-04-11T17:39:36.710Z,13.57
2023-04-11T17:42:05.683Z,13.55
2023-04-11T17:44:34.609Z,13.56
2023-04-11T17:47:02.381Z,13.55
2023-04-11T17:49:30.764Z,13.53
2023-04-11T17:51:59.466Z,13.51
2023-04-11T17:54:27.963Z,13.49
2023-04-11T17:56:56.467Z,13.47
2023-04-11T17:59:25.559Z,13.47
2023-04-11T18:01:56.086Z,13.46
2023-04-11T18:04:25.071Z,13.44
2023-04-11T18:06:55.006Z,13.44
2023-04-11T18:09:27.487Z,13.42
2023-04-11T18:11:56.597Z,13.41
2023-04-11T18:14:25.391Z,13.42
2023-04-11T18:16:53.327Z,13.43
2023-04-11T18:19:21.046Z,13.43
2023-04-11T18:21:50.725Z,13.41
2023-04-11T18:24:19.460Z,13.38
2023-04-11T18:26:48.136Z,13.37
2023-04-11T18:29:19.881Z,13.33
2023-04-11T18:31:47.839Z,13.33
2023-04-11T18:34:16.176Z,13.33
2023-04-11T18:36:47.113Z,13.32
2023-04-11T18:39:17.622Z,13.32
2023-04-11T18:41:45.889Z,13.30
2023-04-11T18:44:14.717Z,13.28
2023-04-11T18:46:42.688Z,13.28
2023-04-11T18:49:13.287Z,13.25
2023-04-11T18:51:42.060Z,13.22
2023-04-11T18:54:13.455Z,13.21
2023-04-11T18:56:43.722Z,13.19
2023-04-11T18:59:17.263Z,13.16
2023-04-11T19:01:48.414Z,13.19
2023-04-11T19:04:18.544Z,13.19
2023-04-11T19:06:46.710Z,13.19
2023-04-11T19:09:14.799Z,13.19
2023-04-11T19:11:43.018Z,13.18
2023-04-11T19:14:11.200Z,13.18
2023-04-11T19:16:39.339Z,13.16
2023-04-11T19:19:07.269Z,13.16
2023-04-11T19:21:35.193Z,13.10
2023-04-11T19:24:03.772Z,13.06
2023-04-11T19:26:32.374Z,13.05
2023-04-11T19:29:01.043Z,13.04
2023-04-11T19:31:32.371Z,13.03
2023-04-11T19:34:00.634Z,13.00
2023-04-11T19:36:29.526Z,12.99
2023-04-11T19:38:57.441Z,12.98
2023-04-11T19:41:25.814Z,12.96
2023-04-11T19:43:53.571Z,12.93
2023-04-11T19:46:21.575Z,12.92
2023-04-11T19:48:49.435Z,12.91
2023-04-11T19:51:17.856Z,12.90
2023-04-11T19:53:46.182Z,12.89
2023-04-11T19:56:15.021Z,12.87
2023-04-11T19:58:43.561Z,12.83
2023-04-11T20:01:11.381Z,12.82
2023-04-11T20:03:41.032Z,12.79
2023-04-11T20:06:12.234Z,12.78
2023-04-11T20:08:40.147Z,12.76
2023-04-11T20:11:08.249Z,12.75
2023-04-11T20:13:36.499Z,12.74
2023-04-11T20:16:07.505Z,12.74
2023-04-11T20:18:36.531Z,12.74
2023-04-11T20:21:06.309Z,12.70
2023-04-11T20:23:35.957Z,12.71
2023-04-11T20:26:03.930Z,12.73
2023-04-11T20:28:32.311Z,12.73
2023-04-11T20:31:00.434Z,12.74
2023-04-11T20:33:28.245Z,12.74
2023-04-11T20:35:56.736Z,12.71
2023-04-11T20:38:26.456Z,12.69
2023-04-11T20:40:54.307Z,12.69
2023-04-11T20:43:25.333Z,12.65
2023-04-11T20:45:54.465Z,12.65
2023-04-11T20:48:26.015Z,12.63
2023-04-11T20:50:55.890Z,12.57
2023-04-11T20:53:24.402Z,12.58
2023-04-11T20:55:54.017Z,12.58
2023-04-11T20:58:21.952Z,12.55
2023-04-11T21:00:49.727Z,12.51
2023-04-11T21:03:19.165Z,12.50
2023-04-11T21:05:48.236Z,12.50
2023-04-11T21:08:18.410Z,12.50
2023-04-11T21:10:47.191Z,12.50
2023-04-11T21:13:14.972Z,12.49
2023-04-11T21:15:44.644Z,12.49
2023-04-11T21:18:13.005Z,12.46
2023-04-11T21:20:41.724Z,12.46
2023-04-11T21:23:10.092Z,12.45
2023-04-11T21:25:37.952Z,12.44
2023-04-11T21:28:06.017Z,12.46
2023-04-11T21:30:33.882Z,12.43
2023-04-11T21:33:05.295Z,12.41
2023-04-11T21:35:34.346Z,12.40
2023-04-11T21:38:02.383Z,12.36
2023-04-11T21:40:31.119Z,12.30
2023-04-11T21:42:59.618Z,12.25
2023-04-11T21:45:29.974Z,12.22
2023-04-11T21:47:59.167Z,12.20
2023-04-11T21:50:27.004Z,12.17
2023-04-11T21:52:55.026Z,12.16
2023-04-11T21:55:22.890Z,12.15
2023-04-11T21:57:50.668Z,12.13
2023-04-11T22:00:18.754Z,12.10
2023-04-11T22:02:47.166Z,12.04
2023-04-11T22:05:17.584Z,12.00
2023-04-11T22:07:46.621Z,11.97
2023-04-11T22:10:14.917Z,11.92
2023-04-11T22:12:45.861Z,11.79
2023-04-11T22:15:14.255Z,11.57
2023-04-11T22:17:46.218Z,11.34
2023-04-11T22:20:14.307Z,11.18
2023-04-11T22:22:42.597Z,11.02
2023-04-11T22:25:10.562Z,10.90
2023-04-11T22:27:38.516Z,10.76
2023-04-11T22:30:07.538Z,10.64
2023-04-11T22:32:38.049Z,10.54
2023-04-11T22:35:06.843Z,10.47
2023-04-11T22:37:34.995Z,10.45
2023-04-11T22:40:06.216Z,10.38
2023-04-11T22:42:34.685Z,10.30
2023-04-11T22:45:03.051Z,10.30
2023-04-11T22:47:34.442Z,10.25
2023-04-11T22:50:03.632Z,10.16
2023-04-11T22:52:31.906Z,10.14
2023-04-11T22:55:00.138Z,10.13
2023-04-11T22:57:28.151Z,10.08
2023-04-11T22:59:58.441Z,10.06
2023-04-11T23:02:31.594Z,10.04
2023-04-11T23:05:01.962Z,10.02
2023-04-11T23:07:33.509Z,9.99
2023-04-11T23:10:02.877Z,9.96
2023-04-11T23:12:31.622Z,9.94
2023-04-11T23:15:02.159Z,9.93
2023-04-11T23:17:30.900Z,9.90
2023-04-11T23:20:02.749Z,9.88
2023-04-11T23:22:31.441Z,9.87
2023-04-11T23:24:59.807Z,9.86
2023-04-11T23:27:28.234Z,9.84
2023-04-11T23:29:57.863Z,9.83
2023-04-11T23:32:26.149Z,9.79
2023-04-11T23:34:59.678Z,9.72
2023-04-11T23:37:28.865Z,9.69
2023-04-11T23:39:57.072Z,9.67
2023-04-11T23:42:27.205Z,9.64
2023-04-11T23:44:55.653Z,9.62
2023-04-11T23:47:26.605Z,9.57
2023-04-11T23:49:54.740Z,9.51
2023-04-11T23:52:22.470Z,9.45
2023-04-11T23:54:50.439Z,9.41
2023-04-11T23:57:18.545Z,9.40
2023-04-11T23:59:46.745Z,9.37
